createdAt,value
2022-07-31T00:00:27.919Z,2.95
2022-07-31T00:02:56.404Z,3.00
2022-07-31T00:05:24.763Z,2.70
2022-07-31T00:07:59.187Z,3.13
2022-07-31T00:10:27.335Z,3.05
2022-07-31T00:12:56.251Z,2.80
2022-07-31T00:15:23.661Z,3.30
2022-07-31T00:17:52.853Z,2.80
2022-07-31T00:20:21.378Z,3.15
2022-07-31T00:22:49.023Z,3.13
2022-07-31T00:25:16.949Z,2.80
2022-07-31T00:27:44.296Z,3.13
2022-07-31T00:30:16.879Z,2.80
2022-07-31T00:32:44.486Z,3.25
2022-07-31T00:35:12.461Z,2.97
2022-07-31T00:37:41.676Z,3.50
2022-07-31T00:40:13.106Z,2.60
2022-07-31T00:42:40.237Z,3.53
2022-07-31T00:45:08.962Z,3.58
2022-07-31T00:47:36.275Z,3.97
2022-07-31T00:50:07.037Z,3.53
2022-07-31T00:52:34.828Z,2.90
2022-07-31T00:55:01.953Z,2.92
2022-07-31T00:57:28.981Z,3.67
2022-07-31T00:59:57.765Z,4.28
2022-07-31T01:02:25.145Z,3.53
2022-07-31T01:04:52.225Z,4.53
2022-07-31T01:07:20.560Z,4.57
2022-07-31T01:09:49.438Z,4.00
2022-07-31T01:12:22.675Z,4.13
2022-07-31T01:14:56.722Z,4.03
2022-07-31T01:17:26.357Z,4.10
2022-07-31T01:19:57.158Z,3.83
2022-07-31T01:22:45.661Z,4.45
2022-07-31T01:25:56.048Z,4.47
2022-07-31T01:28:37.648Z,3.47
2022-07-31T01:31:25.937Z,4.03
2022-07-31T01:34:05.892Z,4.70
2022-07-31T01:36:36.610Z,4.20
2022-07-31T01:39:04.566Z,4.32
2022-07-31T01:41:36.154Z,4.15
2022-07-31T01:44:05.731Z,4.78
2022-07-31T01:46:37.502Z,4.63
2022-07-31T01:49:10.916Z,5.13
2022-07-31T01:51:39.208Z,5.00
2022-07-31T01:54:07.562Z,4.78
2022-07-31T01:56:36.362Z,4.40
2022-07-31T01:59:05.710Z,4.97
2022-07-31T02:01:48.733Z,4.80
2022-07-31T02:04:22.344Z,5.43
2022-07-31T02:06:51.270Z,4.88
2022-07-31T02:09:20.861Z,4.50
2022-07-31T02:11:54.370Z,4.80
2022-07-31T02:14:25.269Z,5.45
2022-07-31T02:16:52.377Z,4.95
2022-07-31T02:19:21.272Z,4.78
2022-07-31T02:21:50.881Z,4.93
2022-07-31T02:24:18.152Z,5.28
2022-07-31T02:26:46.723Z,5.13
2022-07-31T02:29:19.820Z,4.72
2022-07-31T02:32:03.265Z,5.35
2022-07-31T02:34:32.447Z,5.18
2022-07-31T02:37:01.419Z,5.10
2022-07-31T02:39:31.149Z,4.93
2022-07-31T02:42:01.448Z,4.72
2022-07-31T02:44:32.076Z,5.53
2022-07-31T02:47:02.358Z,5.47
2022-07-31T02:49:30.615Z,5.38
2022-07-31T02:51:58.025Z,5.13
2022-07-31T02:54:26.578Z,5.35
2022-07-31T02:56:56.007Z,4.70
2022-07-31T02:59:23.163Z,5.88
2022-07-31T03:01:50.924Z,5.30
2022-07-31T03:04:18.051Z,6.38
2022-07-31T03:06:45.359Z,6.10
2022-07-31T03:09:12.454Z,6.07
2022-07-31T03:11:39.770Z,6.10
2022-07-31T03:14:08.695Z,5.38
2022-07-31T03:16:36.843Z,6.78
2022-07-31T03:19:05.606Z,5.50
2022-07-31T03:21:32.919Z,6.70
2022-07-31T03:24:00.937Z,6.07
2022-07-31T03:26:30.462Z,6.30
2022-07-31T03:29:02.369Z,5.93
2022-07-31T03:31:30.128Z,6.70
2022-07-31T03:33:57.470Z,6.55
2022-07-31T03:36:25.373Z,6.82
2022-07-31T03:38:52.607Z,6.55
2022-07-31T03:41:20.714Z,6.95
2022-07-31T03:43:49.538Z,7.28
2022-07-31T03:46:20.517Z,6.75
2022-07-31T03:48:47.965Z,6.78
2022-07-31T03:51:15.839Z,8.00
2022-07-31T03:53:43.930Z,7.13
2022-07-31T03:56:12.645Z,7.78
2022-07-31T03:58:40.085Z,7.43
2022-07-31T04:01:10.580Z,7.07
2022-07-31T04:03:39.576Z,7.22
2022-07-31T04:06:06.967Z,6.93
2022-07-31T04:08:34.453Z,6.78
2022-07-31T04:11:01.625Z,6.95
2022-07-31T04:13:28.654Z,7.25
2022-07-31T04:15:57.270Z,6.65
2022-07-31T04:18:27.510Z,6.30
2022-07-31T04:20:57.041Z,6.88
2022-07-31T04:23:24.207Z,6.25
2022-07-31T04:25:59.578Z,6.55
2022-07-31T04:28:26.724Z,6.25
2022-07-31T04:30:53.840Z,6.47
2022-07-31T04:33:21.369Z,6.57
2022-07-31T04:35:48.426Z,6.53
2022-07-31T04:38:17.078Z,6.78
2022-07-31T04:40:44.333Z,5.68
2022-07-31T04:43:12.714Z,6.70
2022-07-31T04:45:39.740Z,6.93
2022-07-31T04:48:06.934Z,6.13
2022-07-31T04:50:34.766Z,6.18
2022-07-31T04:53:01.852Z,7.07
2022-07-31T04:55:29.070Z,6.10
2022-07-31T04:57:57.259Z,6.25
2022-07-31T05:00:27.292Z,5.90
2022-07-31T05:02:56.379Z,6.63
2022-07-31T05:05:23.595Z,5.90
2022-07-31T05:07:51.191Z,6.70
2022-07-31T05:10:36.675Z,6.25
2022-07-31T05:13:04.417Z,6.45
2022-07-31T05:15:32.464Z,6.18
2022-07-31T05:17:59.582Z,6.00
2022-07-31T05:20:26.886Z,6.10
2022-07-31T05:22:53.962Z,6.35
2022-07-31T05:25:21.227Z,5.18
2022-07-31T05:27:50.016Z,4.47
2022-07-31T05:30:17.244Z,5.75
2022-07-31T05:32:58.422Z,5.68
2022-07-31T05:35:30.598Z,6.40
2022-07-31T05:37:57.647Z,5.57
2022-07-31T05:40:25.450Z,6.05
2022-07-31T05:42:52.508Z,6.30
2022-07-31T05:45:20.569Z,5.85
2022-07-31T05:47:47.632Z,5.85
2022-07-31T05:50:14.708Z,5.90
2022-07-31T05:52:42.674Z,6.10
2022-07-31T05:55:09.770Z,5.65
2022-07-31T05:57:36.819Z,6.43
2022-07-31T06:00:05.610Z,6.45
2022-07-31T06:02:32.709Z,6.55
2022-07-31T06:05:00.735Z,6.20
2022-07-31T06:07:28.106Z,5.60
2022-07-31T06:09:57.106Z,5.72
2022-07-31T06:12:24.142Z,6.68
2022-07-31T06:14:51.169Z,7.00
2022-07-31T06:17:19.705Z,6.00
2022-07-31T06:19:46.878Z,6.80
2022-07-31T06:22:13.919Z,6.35
2022-07-31T06:24:42.474Z,6.97
2022-07-31T06:27:15.555Z,7.18
2022-07-31T06:29:57.920Z,6.60
2022-07-31T06:32:25.921Z,6.80
2022-07-31T06:34:53.079Z,7.18
2022-07-31T06:37:20.914Z,7.45
2022-07-31T06:39:54.705Z,8.15
2022-07-31T06:42:25.449Z,7.40
2022-07-31T06:44:53.764Z,6.97
2022-07-31T06:47:26.529Z,8.38
2022-07-31T06:49:56.202Z,8.20
2022-07-31T06:52:23.698Z,7.97
2022-07-31T06:54:51.034Z,8.38
2022-07-31T06:57:18.135Z,9.20
2022-07-31T06:59:45.406Z,7.88
2022-07-31T07:02:12.482Z,9.50
2022-07-31T07:04:56.390Z,9.20
2022-07-31T07:07:31.753Z,8.05
2022-07-31T07:09:59.397Z,9.38
2022-07-31T07:12:26.975Z,8.63
2022-07-31T07:14:58.068Z,10.40
2022-07-31T07:17:28.988Z,9.73
2022-07-31T07:19:57.207Z,9.45
2022-07-31T07:22:31.091Z,10.02
2022-07-31T07:25:00.930Z,9.55
2022-07-31T07:27:28.211Z,11.20
2022-07-31T07:29:57.488Z,10.45
2022-07-31T07:32:27.597Z,10.85
2022-07-31T07:34:59.532Z,9.77
2022-07-31T07:37:28.654Z,10.15
2022-07-31T07:40:03.461Z,10.32
2022-07-31T07:42:32.239Z,11.30
2022-07-31T07:44:59.318Z,10.40
2022-07-31T07:47:26.875Z,12.00
2022-07-31T07:50:15.578Z,10.77
2022-07-31T07:52:44.037Z,12.35
2022-07-31T07:55:12.576Z,13.38
2022-07-31T07:57:39.917Z,12.18
2022-07-31T08:00:10.794Z,11.25
2022-07-31T08:02:38.100Z,12.50
2022-07-31T08:05:06.951Z,13.27
2022-07-31T08:07:42.099Z,12.32
2022-07-31T08:10:10.645Z,12.55
2022-07-31T08:12:38.013Z,12.82
2022-07-31T08:15:08.263Z,13.55
2022-07-31T08:17:38.275Z,12.25
2022-07-31T08:20:06.421Z,11.63
2022-07-31T08:22:34.740Z,11.77
2022-07-31T08:25:05.430Z,12.65
2022-07-31T08:27:39.376Z,12.75
2022-07-31T08:30:08.451Z,13.27
2022-07-31T08:32:36.125Z,13.05
2022-07-31T08:35:03.255Z,13.13
2022-07-31T08:37:52.091Z,14.70
2022-07-31T08:40:19.659Z,14.05
2022-07-31T08:42:46.919Z,13.57
2022-07-31T08:45:14.909Z,14.93
2022-07-31T08:47:47.033Z,16.08
2022-07-31T08:50:15.567Z,15.75
2022-07-31T08:52:45.499Z,16.13
2022-07-31T08:55:54.814Z,16.98
2022-07-31T08:57:59.843Z,17.20
2022-07-31T09:00:28.736Z,18.13
2022-07-31T09:02:57.736Z,17.98
2022-07-31T09:05:25.548Z,17.95
2022-07-31T09:07:52.855Z,16.90
2022-07-31T09:10:29.659Z,16.50
2022-07-31T09:12:57.615Z,17.35
2022-07-31T09:15:28.734Z,17.73
2022-07-31T09:17:57.676Z,15.50
2022-07-31T09:20:28.043Z,16.23
2022-07-31T09:23:10.780Z,18.45
2022-07-31T09:25:38.990Z,16.88
2022-07-31T09:28:10.490Z,17.38
2022-07-31T09:30:56.267Z,16.55
2022-07-31T09:33:24.131Z,16.55
2022-07-31T09:35:52.486Z,16.67
2022-07-31T09:38:20.872Z,16.27
2022-07-31T09:40:55.418Z,18.35
2022-07-31T09:43:25.720Z,17.58
2022-07-31T09:46:04.889Z,19.15
2022-07-31T09:48:32.666Z,19.80
2022-07-31T09:51:05.448Z,19.08
2022-07-31T09:53:43.731Z,19.27
2022-07-31T09:56:16.107Z,20.50
2022-07-31T09:58:45.664Z,20.85
2022-07-31T10:01:13.174Z,20.50
2022-07-31T10:03:40.655Z,20.05
2022-07-31T10:06:16.338Z,20.23
2022-07-31T10:08:47.339Z,19.70
2022-07-31T10:11:19.545Z,18.75
2022-07-31T10:13:49.622Z,19.25
2022-07-31T10:16:22.601Z,17.85
2022-07-31T10:19:01.275Z,17.42
2022-07-31T10:21:35.857Z,17.15
2022-07-31T10:24:04.516Z,16.38
2022-07-31T10:26:57.863Z,15.35
2022-07-31T10:29:20.952Z,14.15
2022-07-31T10:31:49.551Z,13.90
2022-07-31T10:34:17.261Z,14.45
2022-07-31T10:36:49.586Z,15.52
2022-07-31T10:39:51.787Z,16.20
2022-07-31T10:42:28.967Z,15.73
2022-07-31T10:45:17.501Z,16.38
2022-07-31T10:48:03.085Z,15.57
2022-07-31T10:50:34.688Z,17.52
2022-07-31T10:53:50.071Z,17.67
2022-07-31T10:56:15.551Z,17.80
2022-07-31T10:58:53.362Z,19.55
2022-07-31T11:01:21.032Z,18.42
2022-07-31T11:03:52.756Z,18.63
2022-07-31T11:06:21.611Z,17.17
2022-07-31T11:08:53.907Z,18.50
2022-07-31T11:11:36.779Z,18.35
2022-07-31T11:14:04.715Z,17.88
2022-07-31T11:16:31.778Z,17.17
2022-07-31T11:19:01.828Z,17.35
2022-07-31T11:21:39.295Z,17.40
2022-07-31T11:24:15.611Z,15.73
2022-07-31T11:26:51.568Z,16.02
2022-07-31T11:30:00.008Z,16.52
2022-07-31T11:32:25.659Z,15.93
2022-07-31T11:34:57.334Z,16.08
2022-07-31T11:37:46.199Z,16.48
2022-07-31T11:40:15.765Z,15.13
2022-07-31T11:42:45.901Z,15.10
2022-07-31T11:45:15.543Z,16.38
2022-07-31T11:48:11.914Z,14.77
2022-07-31T11:50:43.416Z,15.02
2022-07-31T11:53:11.382Z,13.77
2022-07-31T11:55:50.736Z,15.95
2022-07-31T11:58:20.650Z,15.00
2022-07-31T12:00:51.635Z,15.65
2022-07-31T12:03:22.469Z,14.45
2022-07-31T12:05:56.470Z,15.05
2022-07-31T12:08:27.058Z,14.45
2022-07-31T12:10:57.124Z,13.52
2022-07-31T12:13:25.697Z,14.27
2022-07-31T12:16:07.920Z,12.85
2022-07-31T12:18:53.755Z,11.63
2022-07-31T12:21:21.411Z,12.27
2022-07-31T12:23:51.365Z,11.90
2022-07-31T12:26:53.740Z,11.90
2022-07-31T12:29:31.584Z,10.90
2022-07-31T12:31:58.893Z,11.02
2022-07-31T12:34:29.608Z,11.10
2022-07-31T12:37:20.625Z,11.63
2022-07-31T12:39:59.268Z,10.10
2022-07-31T12:42:41.613Z,10.63
2022-07-31T12:45:18.002Z,8.98
2022-07-31T12:47:51.727Z,9.55
2022-07-31T12:50:26.940Z,8.95
2022-07-31T12:52:57.216Z,7.97
2022-07-31T12:55:24.469Z,7.63
2022-07-31T12:57:52.475Z,8.15
2022-07-31T13:00:23.121Z,7.20
2022-07-31T13:02:52.330Z,6.78
2022-07-31T13:05:21.018Z,6.97
2022-07-31T13:07:49.082Z,6.65
2022-07-31T13:10:23.693Z,6.45
2022-07-31T13:12:52.630Z,5.95
2022-07-31T13:15:23.402Z,4.50
2022-07-31T13:17:51.249Z,6.10
2022-07-31T13:20:19.697Z,5.43
2022-07-31T13:22:46.963Z,4.30
2022-07-31T13:25:14.586Z,4.25
2022-07-31T13:27:41.883Z,3.65
2022-07-31T13:30:10.083Z,3.55
2022-07-31T13:32:37.207Z,4.47
2022-07-31T13:35:27.030Z,4.57
2022-07-31T13:37:53.782Z,5.03
2022-07-31T13:40:46.111Z,4.10
2022-07-31T13:43:13.706Z,3.33
2022-07-31T13:45:40.773Z,2.80
2022-07-31T13:48:09.547Z,3.33
2022-07-31T13:50:41.310Z,3.22
2022-07-31T13:53:12.028Z,3.20
2022-07-31T13:55:39.152Z,3.63
2022-07-31T13:58:06.341Z,4.47
2022-07-31T14:00:33.916Z,4.60
2022-07-31T14:03:01.700Z,5.25
2022-07-31T14:05:28.873Z,6.20
2022-07-31T14:08:29.534Z,5.78
2022-07-31T14:10:48.413Z,5.22
2022-07-31T14:13:20.941Z,5.53
2022-07-31T14:15:48.070Z,5.57
2022-07-31T14:18:15.127Z,5.45
2022-07-31T14:20:42.341Z,4.90
2022-07-31T14:23:09.485Z,4.22
2022-07-31T14:25:38.184Z,4.60
2022-07-31T14:28:09.736Z,4.75
2022-07-31T14:30:37.282Z,4.13
2022-07-31T14:33:05.745Z,4.68
2022-07-31T14:35:35.710Z,3.92
2022-07-31T14:38:04.467Z,3.63
2022-07-31T14:40:36.582Z,4.13
2022-07-31T14:43:06.464Z,4.50
2022-07-31T14:45:51.351Z,5.47
2022-07-31T14:48:21.444Z,4.22
2022-07-31T14:50:48.612Z,4.47
2022-07-31T14:53:15.673Z,4.53
2022-07-31T14:55:42.767Z,5.10
2022-07-31T14:58:10.024Z,5.90
2022-07-31T15:00:37.222Z,5.03
2022-07-31T15:03:04.598Z,5.57
2022-07-31T15:06:48.603Z,4.82
2022-07-31T15:08:18.647Z,6.43
2022-07-31T15:10:45.731Z,5.15
2022-07-31T15:13:13.975Z,4.53
2022-07-31T15:15:43.962Z,5.25
2022-07-31T15:18:11.021Z,5.80
2022-07-31T15:20:38.105Z,5.90
2022-07-31T15:23:06.366Z,5.25
2022-07-31T15:25:33.501Z,5.38
2022-07-31T15:28:06.660Z,4.38
2022-07-31T15:30:34.690Z,5.63
2022-07-31T15:33:01.883Z,4.28
2022-07-31T15:35:31.796Z,4.10
2022-07-31T15:37:59.458Z,4.07
2022-07-31T15:40:32.260Z,4.28
2022-07-31T15:42:59.835Z,4.60
2022-07-31T15:45:26.983Z,4.50
2022-07-31T15:47:54.385Z,4.30
2022-07-31T15:50:22.922Z,4.50
2022-07-31T15:52:52.542Z,5.00
2022-07-31T15:55:22.516Z,5.00
2022-07-31T15:57:51.919Z,5.45
2022-07-31T16:00:22.354Z,5.07
2022-07-31T16:02:53.649Z,4.43
2022-07-31T16:05:37.013Z,5.10
2022-07-31T16:08:28.731Z,5.20
2022-07-31T16:10:57.380Z,5.15
2022-07-31T16:13:25.835Z,5.30
2022-07-31T16:15:57.172Z,4.97
2022-07-31T16:18:24.552Z,5.65
2022-07-31T16:20:51.719Z,6.78
2022-07-31T16:23:21.509Z,6.60
2022-07-31T16:25:48.644Z,6.80
2022-07-31T16:28:15.814Z,6.65
2022-07-31T16:30:43.683Z,6.32
2022-07-31T16:33:10.766Z,6.03
2022-07-31T16:35:38.154Z,6.40
2022-07-31T16:38:05.815Z,6.25
2022-07-31T16:40:36.406Z,5.65
2022-07-31T16:43:47.533Z,6.03
2022-07-31T16:45:53.492Z,6.15
2022-07-31T16:48:21.210Z,5.55
2022-07-31T16:50:53.634Z,5.70
2022-07-31T16:54:10.935Z,5.13
2022-07-31T16:56:15.519Z,5.32
2022-07-31T16:58:44.803Z,4.05
2022-07-31T17:01:53.724Z,3.97
2022-07-31T17:04:03.690Z,4.10
2022-07-31T17:06:38.042Z,4.25
2022-07-31T17:09:16.400Z,4.10
2022-07-31T17:11:47.006Z,4.45
2022-07-31T17:14:14.693Z,4.32
2022-07-31T17:16:46.849Z,3.92
2022-07-31T17:19:16.558Z,3.78
2022-07-31T17:22:07.247Z,4.60
2022-07-31T17:24:37.292Z,4.38
2022-07-31T17:27:07.217Z,4.35
2022-07-31T17:29:38.018Z,5.28
2022-07-31T17:32:11.176Z,4.63
2022-07-31T17:34:45.084Z,4.90
2022-07-31T17:37:12.943Z,5.28
2022-07-31T17:39:40.134Z,4.63
2022-07-31T17:42:09.708Z,5.38
2022-07-31T17:44:39.901Z,5.07
2022-07-31T17:47:10.283Z,5.07
2022-07-31T17:49:37.640Z,5.40
2022-07-31T17:52:06.368Z,5.10
2022-07-31T17:54:33.388Z,6.15
2022-07-31T17:57:00.619Z,5.90
2022-07-31T17:59:28.351Z,5.63
2022-07-31T18:02:03.003Z,6.47
2022-07-31T18:04:36.917Z,5.88
2022-07-31T18:07:08.305Z,6.45
2022-07-31T18:09:36.643Z,6.78
2022-07-31T18:12:05.235Z,6.45
2022-07-31T18:14:32.383Z,7.00
2022-07-31T18:16:59.668Z,7.00
2022-07-31T18:19:26.989Z,7.18
2022-07-31T18:21:56.114Z,6.80
2022-07-31T18:24:23.796Z,7.05
2022-07-31T18:26:53.817Z,6.80
2022-07-31T18:29:21.669Z,6.93
2022-07-31T18:31:49.773Z,7.65
2022-07-31T18:34:19.827Z,8.00
2022-07-31T18:36:54.395Z,8.02
2022-07-31T18:39:25.810Z,7.78
2022-07-31T18:41:53.316Z,7.70
2022-07-31T18:44:23.570Z,7.95
2022-07-31T18:46:53.680Z,7.63
2022-07-31T18:51:01.371Z,7.88
2022-07-31T18:52:10.751Z,7.90
2022-07-31T18:54:38.168Z,6.93
2022-07-31T18:57:08.432Z,7.90
2022-07-31T18:59:37.996Z,8.35
2022-07-31T19:02:11.992Z,7.22
2022-07-31T19:04:39.374Z,7.60
2022-07-31T19:07:08.923Z,8.98
2022-07-31T19:09:36.091Z,7.53
2022-07-31T19:12:08.008Z,8.25
2022-07-31T19:14:36.294Z,7.72
2022-07-31T19:17:07.062Z,7.72
2022-07-31T19:19:52.799Z,8.85
2022-07-31T19:22:23.855Z,8.32
2022-07-31T19:24:51.649Z,7.90
2022-07-31T19:27:34.172Z,8.13
2022-07-31T19:30:10.455Z,8.18
2022-07-31T19:32:41.009Z,7.57
2022-07-31T19:35:08.772Z,7.93
2022-07-31T19:37:36.130Z,8.55
2022-07-31T19:40:06.158Z,8.05
2022-07-31T19:42:33.263Z,8.15
2022-07-31T19:45:00.441Z,9.18
2022-07-31T19:47:27.794Z,8.35
2022-07-31T19:49:55.963Z,8.73
2022-07-31T19:52:23.007Z,8.00
2022-07-31T19:54:51.141Z,7.30
2022-07-31T19:57:18.316Z,8.00
2022-07-31T19:59:46.694Z,7.50
2022-07-31T20:02:16.870Z,8.63
2022-07-31T20:04:44.181Z,7.60
2022-07-31T20:07:11.234Z,8.20
2022-07-31T20:09:38.306Z,8.20
2022-07-31T20:12:09.858Z,10.18
2022-07-31T20:14:37.000Z,9.70
2022-07-31T20:17:04.914Z,8.48
2022-07-31T20:19:32.123Z,7.30
2022-07-31T20:21:59.625Z,7.82
2022-07-31T20:24:30.562Z,8.35
2022-07-31T20:27:06.160Z,7.95
2022-07-31T20:29:33.434Z,9.18
2022-07-31T20:32:00.939Z,9.32
2022-07-31T20:34:28.193Z,9.55
2022-07-31T20:36:58.704Z,8.50
2022-07-31T20:39:33.945Z,7.80
2022-07-31T20:42:01.958Z,7.88
2022-07-31T20:44:31.909Z,7.25
2022-07-31T20:46:58.935Z,7.68
2022-07-31T20:49:35.565Z,8.48
2022-07-31T20:52:04.974Z,5.90
2022-07-31T20:54:35.820Z,6.80
2022-07-31T20:57:02.910Z,6.63
2022-07-31T20:59:30.505Z,7.35
2022-07-31T21:01:57.590Z,6.63
2022-07-31T21:04:25.877Z,7.50
2022-07-31T21:06:52.985Z,7.45
2022-07-31T21:09:31.785Z,5.50
2022-07-31T21:11:59.249Z,7.45
2022-07-31T21:14:28.220Z,7.03
2022-07-31T21:16:58.890Z,7.38
2022-07-31T21:19:30.012Z,6.70
2022-07-31T21:21:57.227Z,6.00
2022-07-31T21:24:25.185Z,5.97
2022-07-31T21:26:57.959Z,6.45
2022-07-31T21:29:26.791Z,6.88
2022-07-31T21:31:58.642Z,7.25
2022-07-31T21:34:27.296Z,6.70
2022-07-31T21:36:56.193Z,5.93
2022-07-31T21:39:27.943Z,7.63
2022-07-31T21:41:57.656Z,7.10
2022-07-31T21:44:26.141Z,7.82
2022-07-31T21:46:57.186Z,8.13
2022-07-31T21:49:32.910Z,8.15
2022-07-31T21:54:28.513Z,7.00
2022-07-31T21:56:58.625Z,7.50
2022-07-31T21:59:28.184Z,6.78
2022-07-31T22:01:57.976Z,6.60
2022-07-31T22:04:29.895Z,6.57
2022-07-31T22:07:21.180Z,6.00
2022-07-31T22:09:48.687Z,5.90
2022-07-31T22:12:15.782Z,5.25
2022-07-31T22:14:42.839Z,5.70
2022-07-31T22:17:09.890Z,5.47
2022-07-31T22:19:44.309Z,6.03
2022-07-31T22:22:14.766Z,6.20
2022-07-31T22:24:41.991Z,6.47
2022-07-31T22:27:28.368Z,6.70
2022-07-31T22:29:57.356Z,7.57
2022-07-31T22:32:24.503Z,8.40
2022-07-31T22:34:51.620Z,7.13
2022-07-31T22:37:19.988Z,7.70
2022-07-31T22:39:47.382Z,8.68
2022-07-31T22:42:14.495Z,8.55
2022-07-31T22:44:41.559Z,8.30
2022-07-31T22:47:09.356Z,8.13
2022-07-31T22:49:36.889Z,8.63
2022-07-31T22:52:07.206Z,8.38
2022-07-31T22:54:34.632Z,7.00
2022-07-31T22:57:01.696Z,6.75
2022-07-31T22:59:28.734Z,7.22
2022-07-31T23:02:04.446Z,6.80
2022-07-31T23:04:31.914Z,7.57
2022-07-31T23:06:58.978Z,7.72
2022-07-31T23:09:27.318Z,7.97
2022-07-31T23:11:55.219Z,8.45
2022-07-31T23:14:23.502Z,8.77
2022-07-31T23:16:51.863Z,8.48
2022-07-31T23:19:18.972Z,6.53
2022-07-31T23:21:46.487Z,7.80
2022-07-31T23:24:13.692Z,7.18
2022-07-31T23:26:40.726Z,6.97
2022-07-31T23:29:07.976Z,7.03
2022-07-31T23:31:36.141Z,7.53
2022-07-31T23:34:03.233Z,7.82
2022-07-31T23:36:30.308Z,8.13
2022-07-31T23:38:57.462Z,7.28
2022-07-31T23:41:43.139Z,7.55
2022-07-31T23:44:10.614Z,7.20
2022-07-31T23:46:38.020Z,7.18
2022-07-31T23:49:06.631Z,7.15
2022-07-31T23:51:33.750Z,6.22
2022-07-31T23:54:00.910Z,7.50
2022-07-31T23:56:28.107Z,6.25
2022-07-31T23:58:57.136Z,7.10
